createdAt,value
2022-12-28T00:00:07.032Z,0.80
2022-12-28T00:02:58.654Z,1.20
2022-12-28T00:05:29.604Z,1.10
2022-12-28T00:08:00.404Z,1.30
2022-12-28T00:11:07.262Z,1.30
2022-12-28T00:13:22.047Z,1.70
2022-12-28T00:15:52.962Z,1.40
2022-12-28T00:18:23.850Z,1.30
2022-12-28T00:21:01.611Z,2.00
2022-12-28T00:23:32.844Z,1.50
2022-12-28T00:26:10.629Z,1.00
2022-12-28T00:28:41.671Z,1.50
2022-12-28T00:31:12.867Z,1.20
2022-12-28T00:33:44.046Z,0.90
2022-12-28T00:36:17.231Z,0.80
2022-12-28T00:38:47.890Z,0.80
2022-12-28T00:41:18.757Z,0.80
2022-12-28T00:43:49.411Z,0.90
2022-12-28T00:46:20.157Z,0.90
2022-12-28T00:48:50.754Z,1.60
2022-12-28T00:51:22.320Z,1.00
2022-12-28T00:53:53.769Z,1.00
2022-12-28T00:56:25.233Z,1.00
2022-12-28T00:59:00.765Z,0.70
2022-12-28T01:01:32.003Z,0.80
2022-12-28T01:04:02.841Z,1.00
2022-12-28T01:06:33.684Z,0.70
2022-12-28T01:09:04.661Z,0.80
2022-12-28T01:11:35.379Z,0.60
2022-12-28T01:14:06.104Z,1.00
2022-12-28T01:16:38.209Z,1.10
2022-12-28T01:19:13.458Z,2.00
2022-12-28T01:21:45.220Z,0.90
2022-12-28T01:24:16.294Z,0.90
2022-12-28T01:26:47.082Z,1.10
2022-12-28T01:29:17.938Z,1.00
2022-12-28T01:31:48.827Z,1.00
2022-12-28T01:34:19.618Z,1.00
2022-12-28T01:36:50.854Z,0.40
2022-12-28T01:39:21.507Z,0.90
2022-12-28T01:41:52.246Z,1.20
2022-12-28T01:44:44.815Z,1.50
2022-12-28T01:47:23.409Z,1.00
2022-12-28T01:50:00.859Z,0.90
2022-12-28T01:52:38.088Z,0.90
2022-12-28T01:55:13.864Z,0.90
2022-12-28T01:57:49.741Z,1.20
2022-12-28T02:00:21.469Z,1.10
2022-12-28T02:02:56.962Z,1.80
2022-12-28T02:05:33.913Z,1.20
2022-12-28T02:08:10.860Z,0.90
2022-12-28T02:10:46.087Z,0.90
2022-12-28T02:13:20.929Z,1.30
2022-12-28T02:15:52.384Z,0.60
2022-12-28T02:18:25.398Z,1.30
2022-12-28T02:21:20.992Z,1.50
2022-12-28T02:24:18.538Z,1.30
2022-12-28T02:26:57.301Z,1.80
2022-12-28T02:29:38.878Z,2.30
2022-12-28T02:32:21.413Z,2.50
2022-12-28T02:35:01.230Z,2.60
2022-12-28T02:37:37.994Z,1.80
2022-12-28T02:40:14.885Z,2.20
2022-12-28T02:42:47.345Z,1.60
2022-12-28T02:45:57.052Z,1.50
2022-12-28T02:48:45.943Z,1.50
2022-12-28T02:51:32.563Z,0.80
2022-12-28T02:54:46.561Z,1.50
2022-12-28T02:57:31.081Z,1.80
2022-12-28T03:00:08.849Z,2.00
2022-12-28T03:02:54.233Z,1.30
2022-12-28T03:08:31.738Z,1.10
2022-12-28T03:11:08.482Z,1.10
2022-12-28T03:13:47.679Z,1.60
2022-12-28T03:16:28.334Z,1.90
2022-12-28T03:19:20.813Z,1.50
2022-12-28T03:22:13.219Z,1.50
2022-12-28T03:25:04.770Z,1.90
2022-12-28T03:27:53.947Z,1.90
2022-12-28T03:30:45.944Z,1.50
2022-12-28T03:33:17.897Z,2.30
2022-12-28T03:35:56.813Z,1.80
2022-12-28T03:38:37.854Z,1.90
2022-12-28T03:41:13.957Z,2.00
2022-12-28T03:43:51.349Z,1.50
2022-12-28T03:46:25.567Z,1.70
2022-12-28T03:48:59.015Z,1.60
2022-12-28T03:51:31.979Z,1.80
2022-12-28T03:54:05.265Z,1.30
2022-12-28T03:56:36.122Z,1.90
2022-12-28T03:59:08.299Z,1.60
2022-12-28T04:01:43.150Z,1.50
2022-12-28T04:04:14.253Z,1.30
2022-12-28T04:06:47.385Z,1.40
2022-12-28T04:09:18.091Z,1.50
2022-12-28T04:11:48.907Z,1.10
2022-12-28T04:14:25.395Z,1.50
2022-12-28T04:16:56.180Z,1.20
2022-12-28T04:19:26.838Z,1.20
2022-12-28T04:21:57.525Z,1.10
2022-12-28T04:24:28.442Z,1.60
2022-12-28T04:26:59.801Z,1.50
2022-12-28T04:29:30.468Z,0.80
2022-12-28T04:32:04.681Z,0.70
2022-12-28T04:34:35.413Z,0.50
2022-12-28T04:37:12.523Z,1.00
2022-12-28T04:39:55.145Z,1.10
2022-12-28T04:42:28.421Z,1.30
2022-12-28T04:44:59.145Z,0.80
2022-12-28T04:47:30.718Z,1.00
2022-12-28T04:50:01.460Z,0.90
2022-12-28T04:52:32.088Z,1.10
2022-12-28T04:55:02.821Z,1.20
2022-12-28T04:57:33.604Z,1.40
2022-12-28T05:00:04.570Z,1.10
2022-12-28T05:02:35.439Z,1.00
2022-12-28T05:05:07.299Z,0.90
2022-12-28T05:07:37.969Z,1.10
2022-12-28T05:10:10.051Z,1.00
2022-12-28T05:12:40.808Z,0.80
2022-12-28T05:15:13.058Z,1.00
2022-12-28T05:17:43.687Z,1.40
2022-12-28T05:20:16.090Z,1.20
2022-12-28T05:22:46.899Z,0.80
2022-12-28T05:25:17.904Z,0.90
2022-12-28T05:27:48.650Z,1.50
2022-12-28T05:30:19.636Z,1.40
2022-12-28T05:32:50.355Z,0.80
2022-12-28T05:35:21.266Z,1.60
2022-12-28T05:37:51.979Z,1.50
2022-12-28T05:40:22.684Z,0.90
2022-12-28T05:42:53.420Z,1.20
2022-12-28T05:45:24.007Z,1.10
2022-12-28T05:47:55.166Z,1.50
2022-12-28T05:50:25.798Z,1.90
2022-12-28T05:52:56.513Z,1.80
2022-12-28T05:55:27.311Z,1.20
2022-12-28T05:57:58.482Z,1.40
2022-12-28T06:00:29.084Z,2.10
2022-12-28T06:02:59.980Z,1.50
2022-12-28T06:05:30.671Z,1.50
2022-12-28T06:08:01.462Z,2.20
2022-12-28T06:10:32.094Z,1.50
2022-12-28T06:13:02.765Z,1.10
2022-12-28T06:15:33.425Z,1.00
2022-12-28T06:18:04.242Z,1.50
2022-12-28T06:20:34.836Z,1.40
2022-12-28T06:23:05.792Z,1.20
2022-12-28T06:25:38.419Z,1.60
2022-12-28T06:28:09.104Z,1.30
2022-12-28T06:30:39.729Z,1.00
2022-12-28T06:33:10.416Z,1.20
2022-12-28T06:35:44.324Z,0.80
2022-12-28T06:38:14.962Z,1.40
2022-12-28T06:41:12.226Z,1.20
2022-12-28T06:43:37.710Z,1.00
2022-12-28T06:46:11.217Z,0.90
2022-12-28T06:48:42.274Z,0.70
2022-12-28T06:51:16.915Z,0.90
2022-12-28T06:53:49.153Z,1.40
2022-12-28T06:56:21.995Z,2.00
2022-12-28T06:59:00.305Z,2.50
2022-12-28T07:01:35.889Z,1.60
2022-12-28T07:04:09.170Z,2.40
2022-12-28T07:09:13.545Z,1.30
2022-12-28T07:11:45.162Z,1.40
2022-12-28T07:14:15.892Z,1.60
2022-12-28T07:16:46.583Z,1.60
2022-12-28T07:19:17.252Z,0.80
2022-12-28T07:21:50.651Z,1.00
2022-12-28T07:24:21.448Z,0.90
2022-12-28T07:26:52.127Z,1.30
2022-12-28T07:29:22.943Z,1.00
2022-12-28T07:31:53.670Z,0.90
2022-12-28T07:34:24.720Z,1.00
2022-12-28T07:36:55.333Z,0.90
2022-12-28T07:39:26.004Z,1.20
2022-12-28T07:41:56.629Z,1.10
2022-12-28T07:44:29.882Z,1.10
2022-12-28T07:47:01.589Z,1.30
2022-12-28T07:49:32.372Z,0.70
2022-12-28T07:52:03.210Z,1.00
2022-12-28T07:54:33.900Z,1.10
2022-12-28T07:57:04.998Z,0.70
2022-12-28T07:59:36.218Z,1.40
2022-12-28T08:02:07.087Z,1.10
2022-12-28T08:04:37.879Z,1.20
2022-12-28T08:07:08.561Z,1.80
2022-12-28T08:09:39.264Z,1.30
2022-12-28T08:12:10.180Z,0.90
2022-12-28T08:14:40.913Z,1.20
2022-12-28T08:17:14.837Z,1.20
2022-12-28T08:19:50.788Z,1.70
2022-12-28T08:22:21.548Z,2.30
2022-12-28T08:24:52.212Z,3.00
2022-12-28T08:27:22.925Z,1.90
2022-12-28T08:29:53.667Z,2.50
2022-12-28T08:32:24.284Z,1.70
2022-12-28T08:34:55.069Z,2.00
2022-12-28T08:37:26.100Z,0.80
2022-12-28T08:39:56.697Z,0.90
2022-12-28T08:42:27.376Z,1.40
2022-12-28T08:44:58.100Z,1.10
2022-12-28T08:47:28.711Z,1.30
2022-12-28T08:49:59.492Z,1.30
2022-12-28T08:52:30.277Z,1.40
2022-12-28T08:55:01.026Z,1.50
2022-12-28T08:57:31.743Z,1.50
2022-12-28T09:00:02.808Z,1.20
2022-12-28T09:02:33.710Z,2.00
2022-12-28T09:05:04.754Z,1.30
2022-12-28T09:07:35.570Z,0.80
2022-12-28T09:10:08.083Z,1.30
2022-12-28T09:12:38.754Z,2.90
2022-12-28T09:15:11.688Z,1.50
2022-12-28T09:17:42.355Z,1.40
2022-12-28T09:20:13.999Z,0.90
2022-12-28T09:22:44.770Z,1.10
2022-12-28T09:25:15.491Z,0.50
2022-12-28T09:27:48.289Z,0.90
2022-12-28T09:30:19.012Z,0.90
2022-12-28T09:33:09.875Z,1.40
2022-12-28T09:35:40.624Z,1.30
2022-12-28T09:38:11.353Z,1.30
2022-12-28T09:40:42.219Z,0.90
2022-12-28T09:43:14.061Z,1.10
2022-12-28T09:45:47.189Z,1.30
2022-12-28T09:48:21.485Z,0.80
2022-12-28T09:50:52.859Z,1.30
2022-12-28T09:53:30.168Z,1.50
2022-12-28T09:56:21.597Z,1.40
2022-12-28T09:58:52.857Z,2.00
2022-12-28T10:01:25.798Z,3.10
2022-12-28T10:04:01.151Z,3.10
2022-12-28T10:06:36.748Z,3.70
2022-12-28T10:09:13.455Z,3.00
2022-12-28T10:11:45.399Z,4.00
2022-12-28T10:14:21.874Z,3.60
2022-12-28T10:16:52.553Z,3.70
2022-12-28T10:19:27.159Z,2.50
2022-12-28T10:22:02.449Z,2.10
2022-12-28T10:24:33.712Z,1.70
2022-12-28T10:27:08.523Z,2.00
2022-12-28T10:29:40.582Z,2.80
2022-12-28T10:32:12.803Z,2.60
2022-12-28T10:34:57.488Z,1.90
2022-12-28T10:37:30.787Z,1.60
2022-12-28T10:40:04.708Z,2.40
2022-12-28T10:42:41.185Z,1.80
2022-12-28T10:45:23.959Z,1.30
2022-12-28T10:47:57.154Z,1.90
2022-12-28T10:50:48.262Z,2.00
2022-12-28T10:53:27.556Z,1.70
2022-12-28T10:56:07.902Z,2.10
2022-12-28T10:58:38.564Z,2.50
2022-12-28T11:01:19.797Z,2.00
2022-12-28T11:04:03.702Z,5.30
2022-12-28T11:06:35.559Z,2.30
2022-12-28T11:09:22.480Z,0.90
2022-12-28T11:11:55.358Z,0.70
2022-12-28T11:17:16.046Z,0.40
2022-12-28T11:22:20.266Z,0.80
2022-12-28T11:24:51.433Z,0.60
2022-12-28T11:27:24.528Z,0.60
2022-12-28T11:29:56.632Z,0.30
2022-12-28T11:32:32.015Z,0.60
2022-12-28T11:35:04.123Z,0.30
2022-12-28T11:37:35.300Z,0.40
2022-12-28T11:40:06.992Z,0.50
2022-12-28T11:42:58.238Z,0.40
2022-12-28T11:45:53.945Z,2.80
2022-12-28T11:48:46.803Z,1.00
2022-12-28T11:51:22.533Z,0.60
2022-12-28T11:53:57.972Z,1.20
2022-12-28T11:56:50.521Z,1.70
2022-12-28T11:59:27.500Z,0.80
2022-12-28T12:02:00.615Z,0.70
2022-12-28T12:04:43.006Z,0.40
2022-12-28T12:07:31.046Z,0.60
2022-12-28T12:10:37.063Z,0.60
2022-12-28T12:13:44.183Z,0.80
2022-12-28T12:16:25.568Z,0.40
2022-12-28T12:18:59.097Z,0.40
2022-12-28T12:21:46.275Z,0.40
2022-12-28T12:24:27.955Z,0.30
2022-12-28T12:27:10.178Z,0.40
2022-12-28T12:29:45.802Z,0.50
2022-12-28T12:32:22.405Z,0.30
2022-12-28T12:34:56.516Z,0.40
2022-12-28T12:37:39.015Z,0.60
2022-12-28T12:40:32.097Z,0.40
2022-12-28T12:43:30.429Z,0.50
2022-12-28T12:46:19.398Z,0.50
2022-12-28T12:49:16.832Z,0.50
2022-12-28T12:51:57.161Z,0.40
2022-12-28T12:54:41.824Z,0.40
2022-12-28T12:57:19.301Z,0.40
2022-12-28T13:00:03.633Z,0.60
2022-12-28T13:03:18.118Z,0.70
2022-12-28T13:05:54.712Z,0.60
2022-12-28T13:08:32.189Z,0.40
2022-12-28T13:11:03.293Z,0.40
2022-12-28T13:13:37.942Z,0.40
2022-12-28T13:16:12.700Z,0.30
2022-12-28T13:18:53.142Z,0.30
2022-12-28T13:21:24.991Z,0.20
2022-12-28T13:23:56.394Z,0.60
2022-12-28T13:26:30.452Z,0.20
2022-12-28T13:29:03.899Z,0.60
2022-12-28T13:31:39.713Z,0.60
2022-12-28T13:34:19.681Z,0.70
2022-12-28T13:36:56.857Z,0.40
2022-12-28T13:39:28.989Z,0.60
2022-12-28T13:42:01.495Z,0.30
2022-12-28T13:44:43.478Z,0.30
2022-12-28T13:47:23.270Z,0.50
2022-12-28T13:49:59.701Z,0.90
2022-12-28T13:52:35.542Z,0.40
2022-12-28T13:55:12.545Z,0.70
2022-12-28T13:57:50.324Z,0.60
2022-12-28T14:00:25.282Z,1.20
2022-12-28T14:02:58.979Z,1.90
2022-12-28T14:05:32.020Z,1.70
2022-12-28T14:08:03.188Z,1.80
2022-12-28T14:10:34.369Z,1.80
2022-12-28T14:13:07.869Z,2.70
2022-12-28T14:15:41.813Z,2.70
2022-12-28T14:18:16.997Z,2.30
2022-12-28T14:20:52.483Z,2.10
2022-12-28T14:23:27.197Z,2.30
2022-12-28T14:26:00.390Z,2.70
2022-12-28T14:28:36.271Z,1.50
2022-12-28T14:31:09.133Z,1.30
2022-12-28T14:33:50.661Z,4.20
2022-12-28T14:36:24.185Z,1.20
2022-12-28T14:39:01.281Z,1.00
2022-12-28T14:41:39.609Z,1.00
2022-12-28T14:44:19.054Z,0.80
2022-12-28T14:46:54.402Z,0.40
2022-12-28T14:49:34.886Z,0.70
2022-12-28T14:52:42.886Z,0.60
2022-12-28T14:55:33.418Z,0.50
2022-12-28T14:58:13.592Z,0.50
2022-12-28T15:00:58.095Z,0.90
2022-12-28T15:03:30.717Z,1.20
2022-12-28T15:06:02.561Z,0.90
2022-12-28T15:08:33.408Z,0.80
2022-12-28T15:13:39.980Z,0.90
2022-12-28T15:16:14.126Z,0.60
2022-12-28T15:18:45.349Z,1.20
2022-12-28T15:21:18.501Z,1.70
2022-12-28T15:23:53.069Z,1.80
2022-12-28T15:26:24.780Z,2.00
2022-12-28T15:28:55.609Z,2.80
2022-12-28T15:31:26.237Z,3.60
2022-12-28T15:33:57.134Z,2.40
2022-12-28T15:36:28.746Z,2.60
2022-12-28T15:39:02.311Z,2.60
2022-12-28T15:41:48.753Z,3.10
2022-12-28T15:44:21.264Z,2.30
2022-12-28T15:46:52.301Z,2.60
2022-12-28T15:49:23.030Z,2.50
2022-12-28T15:51:53.647Z,2.40
2022-12-28T15:54:24.465Z,2.30
2022-12-28T15:56:57.822Z,2.30
2022-12-28T15:59:29.042Z,2.20
2022-12-28T16:02:00.078Z,1.90
2022-12-28T16:04:31.674Z,2.00
2022-12-28T16:07:02.299Z,2.30
2022-12-28T16:09:33.164Z,1.20
2022-12-28T16:12:04.649Z,2.20
2022-12-28T16:14:35.303Z,2.10
2022-12-28T16:17:06.070Z,2.30
2022-12-28T16:19:36.867Z,3.10
2022-12-28T16:22:07.676Z,2.90
2022-12-28T16:24:38.666Z,3.10
2022-12-28T16:27:09.686Z,4.10
2022-12-28T16:29:40.417Z,3.40
2022-12-28T16:32:11.069Z,3.50
2022-12-28T16:34:41.645Z,3.30
2022-12-28T16:37:12.369Z,3.20
2022-12-28T16:39:43.158Z,4.00
2022-12-28T16:42:13.936Z,3.30
2022-12-28T16:44:44.609Z,2.80
2022-12-28T16:47:15.391Z,3.40
2022-12-28T16:49:51.043Z,3.60
2022-12-28T16:52:22.270Z,3.80
2022-12-28T16:54:53.010Z,3.90
2022-12-28T16:57:23.713Z,4.70
2022-12-28T16:59:54.393Z,4.80
2022-12-28T17:02:25.308Z,5.00
2022-12-28T17:04:56.084Z,4.00
2022-12-28T17:07:26.682Z,3.50
2022-12-28T17:09:57.279Z,3.80
2022-12-28T17:12:28.254Z,3.70
2022-12-28T17:15:04.636Z,2.40
2022-12-28T17:17:36.596Z,2.90
2022-12-28T17:20:09.195Z,3.00
2022-12-28T17:22:40.847Z,2.60
2022-12-28T17:25:14.594Z,2.50
2022-12-28T17:27:45.469Z,2.10
2022-12-28T17:30:16.973Z,3.10
2022-12-28T17:32:48.412Z,3.00
2022-12-28T17:35:20.210Z,3.40
2022-12-28T17:37:51.379Z,2.80
2022-12-28T17:40:22.200Z,2.50
2022-12-28T17:42:53.129Z,3.20
2022-12-28T17:45:24.106Z,2.30
2022-12-28T17:47:54.971Z,2.50
2022-12-28T17:50:25.789Z,2.70
2022-12-28T17:52:56.696Z,2.30
2022-12-28T17:55:40.518Z,2.80
2022-12-28T17:58:14.533Z,2.00
2022-12-28T18:00:45.517Z,2.70
2022-12-28T18:03:16.264Z,2.10
2022-12-28T18:05:50.710Z,2.60
2022-12-28T18:08:23.230Z,2.90
2022-12-28T18:10:54.438Z,2.40
2022-12-28T18:13:26.903Z,2.30
2022-12-28T18:15:57.812Z,2.10
2022-12-28T18:18:28.623Z,2.00
2022-12-28T18:21:07.830Z,2.50
2022-12-28T18:23:39.319Z,2.40
2022-12-28T18:26:13.291Z,1.80
2022-12-28T18:28:44.125Z,2.20
2022-12-28T18:31:15.062Z,2.10
2022-12-28T18:33:45.693Z,1.70
2022-12-28T18:36:18.515Z,2.30
2022-12-28T18:38:50.195Z,2.20
2022-12-28T18:41:22.397Z,2.20
2022-12-28T18:43:53.849Z,2.50
2022-12-28T18:46:24.538Z,2.20
2022-12-28T18:48:55.616Z,2.20
2022-12-28T18:51:26.413Z,1.40
2022-12-28T18:53:57.142Z,2.00
2022-12-28T18:56:30.561Z,1.80
2022-12-28T18:59:01.278Z,2.20
2022-12-28T19:02:05.053Z,2.20
2022-12-28T19:04:22.704Z,2.50
2022-12-28T19:06:54.011Z,2.90
2022-12-28T19:09:24.897Z,2.10
2022-12-28T19:11:55.746Z,2.30
2022-12-28T19:14:26.925Z,2.30
2022-12-28T19:16:57.604Z,3.40
2022-12-28T19:19:28.285Z,3.70
2022-12-28T19:21:59.291Z,2.60
2022-12-28T19:24:30.027Z,2.60
2022-12-28T19:27:00.665Z,3.00
2022-12-28T19:29:32.541Z,4.00
2022-12-28T19:32:03.303Z,2.80
2022-12-28T19:34:34.002Z,2.10
2022-12-28T19:37:04.717Z,2.50
2022-12-28T19:39:35.347Z,2.40
2022-12-28T19:42:06.093Z,2.30
2022-12-28T19:44:37.635Z,2.10
2022-12-28T19:47:08.709Z,2.80
2022-12-28T19:49:39.483Z,2.70
2022-12-28T19:52:10.052Z,3.50
2022-12-28T19:54:41.882Z,2.90
2022-12-28T19:57:12.522Z,2.10
2022-12-28T19:59:43.204Z,2.40
2022-12-28T20:02:14.232Z,2.30
2022-12-28T20:04:44.991Z,2.10
2022-12-28T20:07:15.720Z,2.00
2022-12-28T20:09:46.308Z,2.50
2022-12-28T20:12:18.108Z,2.60
2022-12-28T20:14:48.958Z,2.60
2022-12-28T20:17:19.685Z,2.00
2022-12-28T20:19:50.525Z,2.10
2022-12-28T20:22:21.153Z,2.40
2022-12-28T20:24:51.906Z,1.80
2022-12-28T20:27:23.505Z,1.60
2022-12-28T20:29:54.433Z,1.50
2022-12-28T20:32:25.451Z,1.50
2022-12-28T20:34:58.337Z,1.50
2022-12-28T20:39:58.192Z,1.50
2022-12-28T20:42:46.810Z,1.40
2022-12-28T20:45:17.753Z,2.30
2022-12-28T20:47:48.414Z,1.60
2022-12-28T20:50:19.146Z,1.70
2022-12-28T20:52:53.134Z,2.00
2022-12-28T20:55:23.818Z,2.10
2022-12-28T20:57:54.495Z,2.10
2022-12-28T21:00:25.371Z,2.40
2022-12-28T21:02:56.139Z,2.20
2022-12-28T21:05:26.818Z,2.30
2022-12-28T21:07:57.666Z,2.00
2022-12-28T21:10:28.441Z,2.00
2022-12-28T21:12:59.388Z,1.60
2022-12-28T21:15:30.340Z,1.60
2022-12-28T21:18:01.157Z,1.60
2022-12-28T21:20:37.115Z,1.50
2022-12-28T21:23:09.842Z,1.40
2022-12-28T21:25:40.600Z,1.60
2022-12-28T21:28:12.286Z,1.40
2022-12-28T21:30:42.906Z,1.70
2022-12-28T21:33:14.046Z,1.80
2022-12-28T21:35:44.769Z,1.50
2022-12-28T21:38:15.459Z,2.20
2022-12-28T21:40:46.220Z,2.10
2022-12-28T21:43:16.909Z,1.70
2022-12-28T21:46:01.506Z,2.20
2022-12-28T21:48:35.688Z,1.80
2022-12-28T21:51:31.399Z,2.20
2022-12-28T21:54:03.278Z,2.10
2022-12-28T21:56:34.581Z,1.90
2022-12-28T21:59:06.548Z,1.50
2022-12-28T22:01:56.017Z,1.90
2022-12-28T22:04:44.995Z,1.60
2022-12-28T22:07:17.431Z,1.90
2022-12-28T22:10:06.341Z,1.80
2022-12-28T22:12:38.087Z,2.60
2022-12-28T22:15:30.616Z,2.00
2022-12-28T22:18:03.530Z,2.20
2022-12-28T22:20:37.040Z,2.20
2022-12-28T22:23:08.215Z,1.90
2022-12-28T22:25:39.256Z,1.70
2022-12-28T22:28:10.580Z,2.20
2022-12-28T22:30:41.419Z,2.00
2022-12-28T22:33:12.219Z,1.70
2022-12-28T22:35:42.856Z,1.40
2022-12-28T22:38:13.609Z,1.40
2022-12-28T22:40:44.222Z,1.70
2022-12-28T22:43:14.851Z,2.00
2022-12-28T22:45:45.503Z,1.40
2022-12-28T22:48:16.294Z,1.30
2022-12-28T22:50:47.259Z,1.30
2022-12-28T22:53:17.990Z,1.40
2022-12-28T22:55:59.080Z,1.30
2022-12-28T22:58:30.391Z,1.10
2022-12-28T23:01:12.285Z,1.10
2022-12-28T23:03:45.001Z,1.00
2022-12-28T23:06:17.748Z,1.20
2022-12-28T23:08:49.199Z,1.20
2022-12-28T23:11:39.655Z,1.10
2022-12-28T23:14:39.639Z,1.20
2022-12-28T23:17:15.287Z,0.80
2022-12-28T23:20:04.913Z,0.90
2022-12-28T23:23:05.700Z,0.90
2022-12-28T23:25:53.955Z,0.40
2022-12-28T23:28:24.598Z,0.80
2022-12-28T23:30:56.455Z,0.80
2022-12-28T23:33:27.256Z,1.00
2022-12-28T23:36:01.855Z,1.10
2022-12-28T23:38:34.322Z,1.50
2022-12-28T23:41:26.749Z,0.80
2022-12-28T23:43:59.340Z,0.70
2022-12-28T23:46:30.152Z,1.10
2022-12-28T23:49:00.945Z,0.90
2022-12-28T23:51:31.698Z,0.60
2022-12-28T23:54:02.498Z,0.50
2022-12-28T23:56:33.132Z,0.80
2022-12-28T23:59:04.222Z,0.70
